sensor_id;sensor_type;location;lat;lon;timestamp;P1;durP1;ratioP1;P2;durP2;ratioP2
67564;SDS011;54393;53.556;49.216;2023-09-19T00:00:19;4.82;;;4.32;;
67564;SDS011;54393;53.556;49.216;2023-09-19T00:02:53;5.22;;;4.72;;
67564;SDS011;54393;53.556;49.216;2023-09-19T00:05:25;5.03;;;4.62;;
67564;SDS011;54393;53.556;49.216;2023-09-19T00:07:55;4.60;;;4.30;;
67564;SDS011;54393;53.556;49.216;2023-09-19T00:10:25;5.05;;;4.60;;
67564;SDS011;54393;53.556;49.216;2023-09-19T00:12:53;5.07;;;4.65;;
67564;SDS011;54393;53.556;49.216;2023-09-19T00:15:22;4.78;;;4.37;;
67564;SDS011;54393;53.556;49.216;2023-09-19T00:17:49;4.78;;;4.37;;
67564;SDS011;54393;53.556;49.216;2023-09-19T00:20:18;4.70;;;4.32;;
67564;SDS011;54393;53.556;49.216;2023-09-19T00:22:48;4.80;;;4.40;;
67564;SDS011;54393;53.556;49.216;2023-09-19T00:25:18;5.62;;;4.72;;
67564;SDS011;54393;53.556;49.216;2023-09-19T00:27:45;5.70;;;4.62;;
67564;SDS011;54393;53.556;49.216;2023-09-19T00:30:15;4.60;;;4.20;;
67564;SDS011;54393;53.556;49.216;2023-09-19T00:32:45;4.72;;;4.37;;
67564;SDS011;54393;53.556;49.216;2023-09-19T00:35:13;4.72;;;4.37;;
67564;SDS011;54393;53.556;49.216;2023-09-19T00:37:44;4.93;;;4.53;;
67564;SDS011;54393;53.556;49.216;2023-09-19T00:40:10;4.65;;;4.28;;
67564;SDS011;54393;53.556;49.216;2023-09-19T00:42:38;4.75;;;4.35;;
67564;SDS011;54393;53.556;49.216;2023-09-19T00:45:06;4.93;;;4.43;;
67564;SDS011;54393;53.556;49.216;2023-09-19T00:47:35;4.78;;;4.35;;
67564;SDS011;54393;53.556;49.216;2023-09-19T00:50:03;4.40;;;4.10;;
67564;SDS011;54393;53.556;49.216;2023-09-19T00:52:33;4.53;;;4.12;;
67564;SDS011;54393;53.556;49.216;2023-09-19T00:55:02;5.62;;;4.22;;
67564;SDS011;54393;53.556;49.216;2023-09-19T00:57:32;4.50;;;4.18;;
67564;SDS011;54393;53.556;49.216;2023-09-19T00:59:59;5.30;;;4.30;;
67564;SDS011;54393;53.556;49.216;2023-09-19T01:02:31;4.47;;;4.18;;
67564;SDS011;54393;53.556;49.216;2023-09-19T01:04:58;5.10;;;4.60;;
67564;SDS011;54393;53.556;49.216;2023-09-19T01:07:29;4.95;;;4.53;;
67564;SDS011;54393;53.556;49.216;2023-09-19T01:09:57;4.80;;;4.40;;
67564;SDS011;54393;53.556;49.216;2023-09-19T01:12:30;4.22;;;3.92;;
67564;SDS011;54393;53.556;49.216;2023-09-19T01:20:55;4.40;;;4.10;;
67564;SDS011;54393;53.556;49.216;2023-09-19T01:32:10;4.47;;;4.10;;
67564;SDS011;54393;53.556;49.216;2023-09-19T01:34:58;4.65;;;4.25;;
67564;SDS011;54393;53.556;49.216;2023-09-19T01:37:25;4.53;;;4.15;;
67564;SDS011;54393;53.556;49.216;2023-09-19T01:39:55;4.95;;;4.55;;
67564;SDS011;54393;53.556;49.216;2023-09-19T01:48:24;4.35;;;3.97;;
67564;SDS011;54393;53.556;49.216;2023-09-19T01:51:08;4.25;;;3.85;;
67564;SDS011;54393;53.556;49.216;2023-09-19T01:56:36;4.43;;;4.10;;
67564;SDS011;54393;53.556;49.216;2023-09-19T01:59:24;4.15;;;3.85;;
67564;SDS011;54393;53.556;49.216;2023-09-19T02:01:52;4.20;;;3.83;;
67564;SDS011;54393;53.556;49.216;2023-09-19T02:04:20;4.32;;;3.97;;
67564;SDS011;54393;53.556;49.216;2023-09-19T02:06:46;4.10;;;3.80;;
67564;SDS011;54393;53.556;49.216;2023-09-19T02:09:13;4.32;;;3.97;;
67564;SDS011;54393;53.556;49.216;2023-09-19T02:11:40;4.20;;;3.80;;
67564;SDS011;54393;53.556;49.216;2023-09-19T02:14:07;4.47;;;4.15;;
67564;SDS011;54393;53.556;49.216;2023-09-19T02:16:34;4.37;;;4.05;;
67564;SDS011;54393;53.556;49.216;2023-09-19T02:19:01;4.32;;;4.03;;
67564;SDS011;54393;53.556;49.216;2023-09-19T02:21:31;4.10;;;3.80;;
67564;SDS011;54393;53.556;49.216;2023-09-19T02:23:57;4.40;;;4.00;;
67564;SDS011;54393;53.556;49.216;2023-09-19T02:26:24;4.30;;;3.85;;
67564;SDS011;54393;53.556;49.216;2023-09-19T02:28:52;4.10;;;3.72;;
67564;SDS011;54393;53.556;49.216;2023-09-19T02:31:19;4.72;;;4.32;;
67564;SDS011;54393;53.556;49.216;2023-09-19T02:33:45;4.35;;;4.00;;
67564;SDS011;54393;53.556;49.216;2023-09-19T02:36:12;4.57;;;4.18;;
67564;SDS011;54393;53.556;49.216;2023-09-19T02:38:38;4.97;;;4.47;;
67564;SDS011;54393;53.556;49.216;2023-09-19T02:41:05;4.00;;;3.70;;
67564;SDS011;54393;53.556;49.216;2023-09-19T02:43:31;4.00;;;3.70;;
67564;SDS011;54393;53.556;49.216;2023-09-19T02:45:58;4.53;;;4.20;;
67564;SDS011;54393;53.556;49.216;2023-09-19T02:48:25;4.50;;;4.10;;
67564;SDS011;54393;53.556;49.216;2023-09-19T02:50:52;3.97;;;3.67;;
67564;SDS011;54393;53.556;49.216;2023-09-19T02:53:18;4.75;;;4.35;;
67564;SDS011;54393;53.556;49.216;2023-09-19T02:55:46;4.70;;;4.30;;
67564;SDS011;54393;53.556;49.216;2023-09-19T02:58:13;4.18;;;3.87;;
67564;SDS011;54393;53.556;49.216;2023-09-19T03:00:40;4.80;;;4.03;;
67564;SDS011;54393;53.556;49.216;2023-09-19T03:03:12;4.28;;;3.97;;
67564;SDS011;54393;53.556;49.216;2023-09-19T03:05:41;4.20;;;3.87;;
67564;SDS011;54393;53.556;49.216;2023-09-19T03:08:12;4.28;;;3.87;;
67564;SDS011;54393;53.556;49.216;2023-09-19T03:10:42;4.35;;;3.95;;
67564;SDS011;54393;53.556;49.216;2023-09-19T03:13:09;5.80;;;3.97;;
67564;SDS011;54393;53.556;49.216;2023-09-19T03:15:36;4.12;;;3.72;;
67564;SDS011;54393;53.556;49.216;2023-09-19T03:18:06;4.30;;;3.95;;
67564;SDS011;54393;53.556;49.216;2023-09-19T03:20:32;4.53;;;4.12;;
67564;SDS011;54393;53.556;49.216;2023-09-19T03:22:58;4.18;;;3.80;;
67564;SDS011;54393;53.556;49.216;2023-09-19T03:25:25;3.90;;;3.60;;
67564;SDS011;54393;53.556;49.216;2023-09-19T03:27:53;4.43;;;4.03;;
67564;SDS011;54393;53.556;49.216;2023-09-19T03:30:23;4.00;;;3.70;;
67564;SDS011;54393;53.556;49.216;2023-09-19T03:32:49;4.00;;;3.62;;
67564;SDS011;54393;53.556;49.216;2023-09-19T03:35:16;4.78;;;3.72;;
67564;SDS011;54393;53.556;49.216;2023-09-19T03:37:43;5.32;;;3.87;;
67564;SDS011;54393;53.556;49.216;2023-09-19T03:40:10;4.62;;;3.78;;
67564;SDS011;54393;53.556;49.216;2023-09-19T03:42:40;4.47;;;4.07;;
67564;SDS011;54393;53.556;49.216;2023-09-19T03:45:07;4.22;;;3.92;;
67564;SDS011;54393;53.556;49.216;2023-09-19T03:47:41;4.50;;;4.10;;
67564;SDS011;54393;53.556;49.216;2023-09-19T03:50:08;4.25;;;3.90;;
67564;SDS011;54393;53.556;49.216;2023-09-19T03:52:40;3.72;;;3.42;;
67564;SDS011;54393;53.556;49.216;2023-09-19T03:55:07;4.20;;;3.90;;
67564;SDS011;54393;53.556;49.216;2023-09-19T03:57:35;4.00;;;3.67;;
67564;SDS011;54393;53.556;49.216;2023-09-19T04:00:02;4.18;;;3.85;;
67564;SDS011;54393;53.556;49.216;2023-09-19T04:02:30;4.57;;;3.80;;
67564;SDS011;54393;53.556;49.216;2023-09-19T04:04:58;4.10;;;3.80;;
67564;SDS011;54393;53.556;49.216;2023-09-19T04:07:25;4.07;;;3.78;;
67564;SDS011;54393;53.556;49.216;2023-09-19T04:09:54;3.83;;;3.53;;
67564;SDS011;54393;53.556;49.216;2023-09-19T04:12:20;4.10;;;3.70;;
67564;SDS011;54393;53.556;49.216;2023-09-19T04:14:47;4.32;;;3.90;;
67564;SDS011;54393;53.556;49.216;2023-09-19T04:17:15;3.62;;;3.33;;
67564;SDS011;54393;53.556;49.216;2023-09-19T04:19:41;4.25;;;3.60;;
67564;SDS011;54393;53.556;49.216;2023-09-19T04:22:08;4.35;;;4.05;;
67564;SDS011;54393;53.556;49.216;2023-09-19T04:24:36;4.12;;;3.72;;
67564;SDS011;54393;53.556;49.216;2023-09-19T04:27:03;4.22;;;3.90;;
67564;SDS011;54393;53.556;49.216;2023-09-19T04:29:30;3.72;;;3.42;;
67564;SDS011;54393;53.556;49.216;2023-09-19T04:31:57;3.90;;;3.50;;
67564;SDS011;54393;53.556;49.216;2023-09-19T04:34:23;3.83;;;3.53;;
67564;SDS011;54393;53.556;49.216;2023-09-19T04:36:50;5.70;;;3.35;;
67564;SDS011;54393;53.556;49.216;2023-09-19T04:39:18;3.70;;;3.40;;
67564;SDS011;54393;53.556;49.216;2023-09-19T04:41:44;3.37;;;3.17;;
67564;SDS011;54393;53.556;49.216;2023-09-19T04:44:13;4.07;;;3.78;;
67564;SDS011;54393;53.556;49.216;2023-09-19T04:46:39;4.78;;;3.70;;
67564;SDS011;54393;53.556;49.216;2023-09-19T04:49:06;3.67;;;3.35;;
67564;SDS011;54393;53.556;49.216;2023-09-19T04:51:32;4.03;;;3.65;;
67564;SDS011;54393;53.556;49.216;2023-09-19T04:54:01;3.85;;;3.58;;
67564;SDS011;54393;53.556;49.216;2023-09-19T04:56:28;4.15;;;3.85;;
67564;SDS011;54393;53.556;49.216;2023-09-19T04:58:55;3.83;;;3.47;;
67564;SDS011;54393;53.556;49.216;2023-09-19T05:01:23;3.78;;;3.47;;
67564;SDS011;54393;53.556;49.216;2023-09-19T05:03:50;3.58;;;3.35;;
67564;SDS011;54393;53.556;49.216;2023-09-19T05:06:20;3.62;;;3.33;;
67564;SDS011;54393;53.556;49.216;2023-09-19T05:08:49;4.30;;;3.30;;
67564;SDS011;54393;53.556;49.216;2023-09-19T05:11:18;3.62;;;3.35;;
67564;SDS011;54393;53.556;49.216;2023-09-19T05:13:47;4.10;;;3.70;;
67564;SDS011;54393;53.556;49.216;2023-09-19T05:16:15;3.30;;;3.10;;
67564;SDS011;54393;53.556;49.216;2023-09-19T05:18:42;3.80;;;3.50;;
67564;SDS011;54393;53.556;49.216;2023-09-19T05:21:08;4.07;;;3.78;;
67564;SDS011;54393;53.556;49.216;2023-09-19T05:23:35;4.55;;;3.92;;
67564;SDS011;54393;53.556;49.216;2023-09-19T05:26:02;3.70;;;3.40;;
67564;SDS011;54393;53.556;49.216;2023-09-19T05:28:30;3.62;;;3.33;;
67564;SDS011;54393;53.556;49.216;2023-09-19T05:31:00;4.55;;;3.50;;
67564;SDS011;54393;53.556;49.216;2023-09-19T05:33:30;3.83;;;3.53;;
67564;SDS011;54393;53.556;49.216;2023-09-19T05:35:57;3.65;;;3.37;;
67564;SDS011;54393;53.556;49.216;2023-09-19T05:38:23;3.80;;;3.50;;
67564;SDS011;54393;53.556;49.216;2023-09-19T05:40:51;3.72;;;3.40;;
67564;SDS011;54393;53.556;49.216;2023-09-19T05:43:18;2.90;;;2.70;;
67564;SDS011;54393;53.556;49.216;2023-09-19T05:45:44;3.70;;;3.40;;
67564;SDS011;54393;53.556;49.216;2023-09-19T05:48:11;4.60;;;3.30;;
67564;SDS011;54393;53.556;49.216;2023-09-19T05:50:39;8.43;;;4.20;;
67564;SDS011;54393;53.556;49.216;2023-09-19T05:53:05;7.05;;;3.78;;
67564;SDS011;54393;53.556;49.216;2023-09-19T05:55:32;11.23;;;3.90;;
67564;SDS011;54393;53.556;49.216;2023-09-19T05:57:58;10.18;;;3.75;;
67564;SDS011;54393;53.556;49.216;2023-09-19T06:00:25;4.85;;;3.55;;
67564;SDS011;54393;53.556;49.216;2023-09-19T06:02:57;7.65;;;3.72;;
67564;SDS011;54393;53.556;49.216;2023-09-19T06:05:24;6.05;;;3.37;;
67564;SDS011;54393;53.556;49.216;2023-09-19T06:07:57;8.90;;;3.95;;
67564;SDS011;54393;53.556;49.216;2023-09-19T06:10:33;8.43;;;4.28;;
67564;SDS011;54393;53.556;49.216;2023-09-19T06:13:02;5.90;;;3.80;;
67564;SDS011;54393;53.556;49.216;2023-09-19T06:15:35;5.15;;;3.65;;
67564;SDS011;54393;53.556;49.216;2023-09-19T06:18:01;4.80;;;3.60;;
67564;SDS011;54393;53.556;49.216;2023-09-19T06:20:30;5.75;;;3.28;;
67564;SDS011;54393;53.556;49.216;2023-09-19T06:22:58;4.70;;;3.40;;
67564;SDS011;54393;53.556;49.216;2023-09-19T06:25:27;11.05;;;3.67;;
67564;SDS011;54393;53.556;49.216;2023-09-19T06:27:53;6.65;;;3.25;;
67564;SDS011;54393;53.556;49.216;2023-09-19T06:30:21;4.53;;;3.03;;
67564;SDS011;54393;53.556;49.216;2023-09-19T06:32:49;7.03;;;4.00;;
67564;SDS011;54393;53.556;49.216;2023-09-19T06:35:20;5.07;;;3.80;;
67564;SDS011;54393;53.556;49.216;2023-09-19T06:37:47;6.12;;;3.72;;
67564;SDS011;54393;53.556;49.216;2023-09-19T06:40:14;4.62;;;3.50;;
67564;SDS011;54393;53.556;49.216;2023-09-19T06:42:45;4.62;;;3.25;;
67564;SDS011;54393;53.556;49.216;2023-09-19T06:45:13;3.75;;;3.37;;
67564;SDS011;54393;53.556;49.216;2023-09-19T06:47:47;4.90;;;3.25;;
67564;SDS011;54393;53.556;49.216;2023-09-19T06:50:15;3.60;;;3.30;;
67564;SDS011;54393;53.556;49.216;2023-09-19T06:52:44;3.83;;;3.53;;
67564;SDS011;54393;53.556;49.216;2023-09-19T06:55:13;3.35;;;3.05;;
67564;SDS011;54393;53.556;49.216;2023-09-19T06:57:41;3.10;;;2.90;;
67564;SDS011;54393;53.556;49.216;2023-09-19T07:00:11;3.60;;;3.30;;
67564;SDS011;54393;53.556;49.216;2023-09-19T07:02:44;4.12;;;3.35;;
67564;SDS011;54393;53.556;49.216;2023-09-19T07:05:11;3.33;;;3.03;;
67564;SDS011;54393;53.556;49.216;2023-09-19T07:07:37;3.45;;;3.20;;
67564;SDS011;54393;53.556;49.216;2023-09-19T07:10:05;3.50;;;3.22;;
67564;SDS011;54393;53.556;49.216;2023-09-19T07:12:33;3.22;;;3.03;;
67564;SDS011;54393;53.556;49.216;2023-09-19T07:15:00;3.67;;;3.37;;
67564;SDS011;54393;53.556;49.216;2023-09-19T07:17:26;3.40;;;3.10;;
67564;SDS011;54393;53.556;49.216;2023-09-19T07:19:55;3.62;;;3.33;;
67564;SDS011;54393;53.556;49.216;2023-09-19T07:22:23;3.22;;;3.03;;
67564;SDS011;54393;53.556;49.216;2023-09-19T07:24:49;3.75;;;2.87;;
67564;SDS011;54393;53.556;49.216;2023-09-19T07:27:16;3.20;;;2.95;;
67564;SDS011;54393;53.556;49.216;2023-09-19T07:29:42;5.78;;;2.90;;
67564;SDS011;54393;53.556;49.216;2023-09-19T07:32:10;3.42;;;3.03;;
67564;SDS011;54393;53.556;49.216;2023-09-19T07:34:37;3.08;;;2.87;;
67564;SDS011;54393;53.556;49.216;2023-09-19T07:37:06;3.12;;;2.92;;
67564;SDS011;54393;53.556;49.216;2023-09-19T07:39:34;3.00;;;2.80;;
67564;SDS011;54393;53.556;49.216;2023-09-19T07:42:01;3.00;;;2.70;;
67564;SDS011;54393;53.556;49.216;2023-09-19T07:44:28;3.47;;;3.15;;
67564;SDS011;54393;53.556;49.216;2023-09-19T07:46:54;3.10;;;2.90;;
67564;SDS011;54393;53.556;49.216;2023-09-19T07:49:22;3.03;;;2.78;;
67564;SDS011;54393;53.556;49.216;2023-09-19T07:51:48;3.28;;;2.97;;
67564;SDS011;54393;53.556;49.216;2023-09-19T07:54:15;2.50;;;2.30;;
67564;SDS011;54393;53.556;49.216;2023-09-19T07:56:42;3.00;;;2.80;;
67564;SDS011;54393;53.556;49.216;2023-09-19T07:59:10;2.72;;;2.53;;
67564;SDS011;54393;53.556;49.216;2023-09-19T08:01:37;3.22;;;2.92;;
67564;SDS011;54393;53.556;49.216;2023-09-19T08:04:05;3.33;;;2.70;;
67564;SDS011;54393;53.556;49.216;2023-09-19T08:06:32;3.10;;;2.90;;
67564;SDS011;54393;53.556;49.216;2023-09-19T08:09:02;3.80;;;2.95;;
67564;SDS011;54393;53.556;49.216;2023-09-19T08:11:32;2.80;;;2.65;;
67564;SDS011;54393;53.556;49.216;2023-09-19T08:14:02;3.10;;;2.90;;
67564;SDS011;54393;53.556;49.216;2023-09-19T08:16:32;3.47;;;3.17;;
67564;SDS011;54393;53.556;49.216;2023-09-19T08:18:59;2.92;;;2.70;;
67564;SDS011;54393;53.556;49.216;2023-09-19T08:21:27;6.15;;;2.70;;
67564;SDS011;54393;53.556;49.216;2023-09-19T08:23:54;2.75;;;2.55;;
67564;SDS011;54393;53.556;49.216;2023-09-19T08:26:24;3.10;;;2.40;;
67564;SDS011;54393;53.556;49.216;2023-09-19T08:28:50;2.78;;;2.55;;
67564;SDS011;54393;53.556;49.216;2023-09-19T08:31:18;2.92;;;2.72;;
67564;SDS011;54393;53.556;49.216;2023-09-19T08:33:47;2.72;;;2.53;;
67564;SDS011;54393;53.556;49.216;2023-09-19T08:36:17;2.85;;;2.65;;
67564;SDS011;54393;53.556;49.216;2023-09-19T08:38:44;2.37;;;2.28;;
67564;SDS011;54393;53.556;49.216;2023-09-19T08:41:10;2.62;;;2.42;;
67564;SDS011;54393;53.556;49.216;2023-09-19T08:43:37;3.28;;;2.30;;
67564;SDS011;54393;53.556;49.216;2023-09-19T08:48:31;2.30;;;2.10;;
67564;SDS011;54393;53.556;49.216;2023-09-19T08:51:07;3.15;;;2.20;;
67564;SDS011;54393;53.556;49.216;2023-09-19T08:56:36;2.42;;;2.22;;
67564;SDS011;54393;53.556;49.216;2023-09-19T08:59:05;2.35;;;2.20;;
67564;SDS011;54393;53.556;49.216;2023-09-19T09:01:37;2.50;;;2.30;;
67564;SDS011;54393;53.556;49.216;2023-09-19T09:04:08;2.53;;;2.33;;
67564;SDS011;54393;53.556;49.216;2023-09-19T09:06:38;2.05;;;1.95;;
67564;SDS011;54393;53.556;49.216;2023-09-19T09:09:05;2.40;;;2.25;;
67564;SDS011;54393;53.556;49.216;2023-09-19T09:11:42;2.40;;;2.20;;
67564;SDS011;54393;53.556;49.216;2023-09-19T09:14:12;2.40;;;2.20;;
67564;SDS011;54393;53.556;49.216;2023-09-19T09:16:39;2.50;;;2.30;;
67564;SDS011;54393;53.556;49.216;2023-09-19T09:19:06;3.70;;;1.80;;
67564;SDS011;54393;53.556;49.216;2023-09-19T09:21:33;2.60;;;2.40;;
67564;SDS011;54393;53.556;49.216;2023-09-19T09:26:51;1.98;;;1.87;;
67564;SDS011;54393;53.556;49.216;2023-09-19T09:29:31;2.08;;;1.98;;
67564;SDS011;54393;53.556;49.216;2023-09-19T09:34:52;2.03;;;1.93;;
67564;SDS011;54393;53.556;49.216;2023-09-19T09:37:21;2.83;;;2.05;;
67564;SDS011;54393;53.556;49.216;2023-09-19T09:39:53;2.30;;;2.20;;
67564;SDS011;54393;53.556;49.216;2023-09-19T09:42:45;5.32;;;2.42;;
67564;SDS011;54393;53.556;49.216;2023-09-19T09:45:21;3.72;;;2.17;;
67564;SDS011;54393;53.556;49.216;2023-09-19T09:48:01;2.60;;;2.22;;
67564;SDS011;54393;53.556;49.216;2023-09-19T09:50:45;2.37;;;2.17;;
67564;SDS011;54393;53.556;49.216;2023-09-19T09:53:28;4.25;;;2.50;;
67564;SDS011;54393;53.556;49.216;2023-09-19T09:58:30;2.40;;;2.20;;
67564;SDS011;54393;53.556;49.216;2023-09-19T10:01:16;2.60;;;2.40;;
67564;SDS011;54393;53.556;49.216;2023-09-19T10:03:46;2.80;;;2.50;;
67564;SDS011;54393;53.556;49.216;2023-09-19T10:06:14;2.42;;;2.20;;
67564;SDS011;54393;53.556;49.216;2023-09-19T10:09:01;4.90;;;2.30;;
67564;SDS011;54393;53.556;49.216;2023-09-19T10:12:19;3.08;;;2.10;;
67564;SDS011;54393;53.556;49.216;2023-09-19T10:14:43;2.28;;;2.08;;
67564;SDS011;54393;53.556;49.216;2023-09-19T10:17:23;2.58;;;2.37;;
67564;SDS011;54393;53.556;49.216;2023-09-19T10:19:55;2.78;;;2.42;;
67564;SDS011;54393;53.556;49.216;2023-09-19T10:25:24;2.30;;;2.10;;
67564;SDS011;54393;53.556;49.216;2023-09-19T10:28:09;2.45;;;2.25;;
67564;SDS011;54393;53.556;49.216;2023-09-19T10:30:48;2.45;;;2.25;;
67564;SDS011;54393;53.556;49.216;2023-09-19T10:33:41;4.72;;;1.92;;
67564;SDS011;54393;53.556;49.216;2023-09-19T10:36:09;3.10;;;1.90;;
67564;SDS011;54393;53.556;49.216;2023-09-19T10:38:37;1.92;;;1.80;;
67564;SDS011;54393;53.556;49.216;2023-09-19T10:41:06;2.10;;;1.90;;
67564;SDS011;54393;53.556;49.216;2023-09-19T10:43:38;1.65;;;1.55;;
67564;SDS011;54393;53.556;49.216;2023-09-19T10:46:19;1.77;;;1.67;;
67564;SDS011;54393;53.556;49.216;2023-09-19T10:48:46;1.90;;;1.80;;
67564;SDS011;54393;53.556;49.216;2023-09-19T10:51:20;1.77;;;1.60;;
67564;SDS011;54393;53.556;49.216;2023-09-19T10:53:51;2.17;;;1.75;;
67564;SDS011;54393;53.556;49.216;2023-09-19T10:56:29;2.65;;;1.87;;
67564;SDS011;54393;53.556;49.216;2023-09-19T10:59:14;1.87;;;1.70;;
67564;SDS011;54393;53.556;49.216;2023-09-19T11:01:45;1.87;;;1.75;;
67564;SDS011;54393;53.556;49.216;2023-09-19T11:15:06;1.50;;;1.35;;
67564;SDS011;54393;53.556;49.216;2023-09-19T11:20:19;1.70;;;1.50;;
67564;SDS011;54393;53.556;49.216;2023-09-19T11:25:43;3.08;;;1.40;;
67564;SDS011;54393;53.556;49.216;2023-09-19T11:30:56;4.62;;;1.92;;
67564;SDS011;54393;53.556;49.216;2023-09-19T11:36:13;1.48;;;1.37;;
67564;SDS011;54393;53.556;49.216;2023-09-19T11:46:54;2.62;;;1.20;;
67564;SDS011;54393;53.556;49.216;2023-09-19T11:49:33;2.70;;;1.60;;
67564;SDS011;54393;53.556;49.216;2023-09-19T11:52:05;1.92;;;1.55;;
67564;SDS011;54393;53.556;49.216;2023-09-19T11:54:41;2.53;;;1.30;;
67564;SDS011;54393;53.556;49.216;2023-09-19T11:57:20;1.20;;;1.20;;
67564;SDS011;54393;53.556;49.216;2023-09-19T11:59:47;2.15;;;1.30;;
67564;SDS011;54393;53.556;49.216;2023-09-19T12:02:17;1.70;;;1.60;;
67564;SDS011;54393;53.556;49.216;2023-09-19T12:05:06;3.65;;;1.48;;
67564;SDS011;54393;53.556;49.216;2023-09-19T12:07:46;3.08;;;1.52;;
67564;SDS011;54393;53.556;49.216;2023-09-19T12:10:13;1.45;;;1.00;;
67564;SDS011;54393;53.556;49.216;2023-09-19T12:12:55;2.08;;;1.08;;
67564;SDS011;54393;53.556;49.216;2023-09-19T12:15:25;2.17;;;1.17;;
67564;SDS011;54393;53.556;49.216;2023-09-19T12:18:02;3.50;;;1.65;;
67564;SDS011;54393;53.556;49.216;2023-09-19T12:20:42;1.35;;;1.23;;
67564;SDS011;54393;53.556;49.216;2023-09-19T12:23:14;3.10;;;1.25;;
67564;SDS011;54393;53.556;49.216;2023-09-19T12:25:44;2.42;;;1.20;;
67564;SDS011;54393;53.556;49.216;2023-09-19T12:28:19;2.55;;;1.35;;
67564;SDS011;54393;53.556;49.216;2023-09-19T12:30:56;0.93;;;0.90;;
67564;SDS011;54393;53.556;49.216;2023-09-19T12:33:30;2.55;;;1.10;;
67564;SDS011;54393;53.556;49.216;2023-09-19T12:35:57;1.20;;;1.10;;
67564;SDS011;54393;53.556;49.216;2023-09-19T12:38:31;1.70;;;1.20;;
67564;SDS011;54393;53.556;49.216;2023-09-19T12:41:03;2.25;;;1.15;;
67564;SDS011;54393;53.556;49.216;2023-09-19T12:43:32;0.85;;;0.77;;
67564;SDS011;54393;53.556;49.216;2023-09-19T12:46:07;1.00;;;0.98;;
67564;SDS011;54393;53.556;49.216;2023-09-19T12:48:34;4.07;;;1.17;;
67564;SDS011;54393;53.556;49.216;2023-09-19T12:51:09;1.92;;;1.35;;
67564;SDS011;54393;53.556;49.216;2023-09-19T12:53:42;2.03;;;1.12;;
67564;SDS011;54393;53.556;49.216;2023-09-19T12:56:28;4.40;;;1.05;;
67564;SDS011;54393;53.556;49.216;2023-09-19T12:58:58;1.27;;;1.17;;
67564;SDS011;54393;53.556;49.216;2023-09-19T13:01:36;1.48;;;1.27;;
67564;SDS011;54393;53.556;49.216;2023-09-19T13:04:14;3.75;;;1.40;;
67564;SDS011;54393;53.556;49.216;2023-09-19T13:06:55;2.83;;;1.42;;
67564;SDS011;54393;53.556;49.216;2023-09-19T13:09:26;1.30;;;1.17;;
67564;SDS011;54393;53.556;49.216;2023-09-19T13:12:04;3.00;;;1.20;;
67564;SDS011;54393;53.556;49.216;2023-09-19T13:15:09;6.10;;;1.42;;
67564;SDS011;54393;53.556;49.216;2023-09-19T13:17:46;2.55;;;1.15;;
67564;SDS011;54393;53.556;49.216;2023-09-19T13:20:25;1.60;;;1.20;;
67564;SDS011;54393;53.556;49.216;2023-09-19T13:22:53;2.70;;;1.15;;
67564;SDS011;54393;53.556;49.216;2023-09-19T13:25:23;5.00;;;1.25;;
67564;SDS011;54393;53.556;49.216;2023-09-19T13:27:52;1.30;;;1.00;;
67564;SDS011;54393;53.556;49.216;2023-09-19T13:30:23;4.93;;;1.10;;
67564;SDS011;54393;53.556;49.216;2023-09-19T13:33:10;4.53;;;1.17;;
67564;SDS011;54393;53.556;49.216;2023-09-19T13:35:44;10.63;;;1.52;;
67564;SDS011;54393;53.556;49.216;2023-09-19T13:38:13;3.92;;;1.12;;
67564;SDS011;54393;53.556;49.216;2023-09-19T13:40:46;9.70;;;1.92;;
67564;SDS011;54393;53.556;49.216;2023-09-19T13:43:13;5.57;;;1.20;;
67564;SDS011;54393;53.556;49.216;2023-09-19T13:45:41;5.90;;;1.25;;
67564;SDS011;54393;53.556;49.216;2023-09-19T13:48:11;3.25;;;1.05;;
67564;SDS011;54393;53.556;49.216;2023-09-19T13:50:38;3.53;;;1.05;;
67564;SDS011;54393;53.556;49.216;2023-09-19T13:53:07;1.85;;;1.10;;
67564;SDS011;54393;53.556;49.216;2023-09-19T13:55:34;4.87;;;1.20;;
67564;SDS011;54393;53.556;49.216;2023-09-19T13:58:03;4.90;;;1.35;;
67564;SDS011;54393;53.556;49.216;2023-09-19T14:00:36;2.25;;;1.10;;
67564;SDS011;54393;53.556;49.216;2023-09-19T14:03:06;1.42;;;1.17;;
67564;SDS011;54393;53.556;49.216;2023-09-19T14:05:39;2.22;;;0.98;;
67564;SDS011;54393;53.556;49.216;2023-09-19T14:08:09;3.83;;;1.50;;
67564;SDS011;54393;53.556;49.216;2023-09-19T14:10:38;3.83;;;1.42;;
67564;SDS011;54393;53.556;49.216;2023-09-19T14:13:05;2.40;;;1.00;;
67564;SDS011;54393;53.556;49.216;2023-09-19T14:15:31;1.67;;;1.12;;
67564;SDS011;54393;53.556;49.216;2023-09-19T14:18:00;4.22;;;1.33;;
67564;SDS011;54393;53.556;49.216;2023-09-19T14:20:27;2.45;;;1.33;;
67564;SDS011;54393;53.556;49.216;2023-09-19T14:22:55;1.98;;;1.02;;
67564;SDS011;54393;53.556;49.216;2023-09-19T14:25:30;1.60;;;1.10;;
67564;SDS011;54393;53.556;49.216;2023-09-19T14:27:56;2.45;;;1.15;;
67564;SDS011;54393;53.556;49.216;2023-09-19T14:30:23;1.10;;;1.00;;
67564;SDS011;54393;53.556;49.216;2023-09-19T14:32:56;2.28;;;1.15;;
67564;SDS011;54393;53.556;49.216;2023-09-19T14:35:24;2.10;;;1.00;;
67564;SDS011;54393;53.556;49.216;2023-09-19T14:37:50;2.60;;;0.75;;
67564;SDS011;54393;53.556;49.216;2023-09-19T14:40:20;1.12;;;0.90;;
67564;SDS011;54393;53.556;49.216;2023-09-19T14:42:48;1.75;;;1.10;;
67564;SDS011;54393;53.556;49.216;2023-09-19T14:45:20;1.87;;;1.15;;
67564;SDS011;54393;53.556;49.216;2023-09-19T14:47:51;1.42;;;1.00;;
67564;SDS011;54393;53.556;49.216;2023-09-19T14:50:22;2.70;;;0.75;;
67564;SDS011;54393;53.556;49.216;2023-09-19T14:52:49;3.37;;;1.12;;
67564;SDS011;54393;53.556;49.216;2023-09-19T14:55:17;1.23;;;1.10;;
67564;SDS011;54393;53.556;49.216;2023-09-19T14:57:48;2.42;;;0.90;;
67564;SDS011;54393;53.556;49.216;2023-09-19T15:00:17;2.83;;;1.02;;
67564;SDS011;54393;53.556;49.216;2023-09-19T15:02:46;1.35;;;1.10;;
67564;SDS011;54393;53.556;49.216;2023-09-19T15:05:16;1.00;;;0.90;;
67564;SDS011;54393;53.556;49.216;2023-09-19T15:07:44;1.00;;;1.00;;
67564;SDS011;54393;53.556;49.216;2023-09-19T15:10:10;1.80;;;0.90;;
67564;SDS011;54393;53.556;49.216;2023-09-19T15:12:38;1.40;;;1.10;;
67564;SDS011;54393;53.556;49.216;2023-09-19T15:15:05;3.53;;;0.88;;
67564;SDS011;54393;53.556;49.216;2023-09-19T15:17:35;1.00;;;0.90;;
67564;SDS011;54393;53.556;49.216;2023-09-19T15:20:02;0.80;;;0.80;;
67564;SDS011;54393;53.556;49.216;2023-09-19T15:22:32;0.80;;;0.80;;
67564;SDS011;54393;53.556;49.216;2023-09-19T15:25:03;2.20;;;0.80;;
67564;SDS011;54393;53.556;49.216;2023-09-19T15:27:31;1.75;;;0.88;;
67564;SDS011;54393;53.556;49.216;2023-09-19T15:30:01;1.17;;;1.08;;
67564;SDS011;54393;53.556;49.216;2023-09-19T15:32:31;0.73;;;0.60;;
67564;SDS011;54393;53.556;49.216;2023-09-19T15:34:58;1.02;;;0.93;;
67564;SDS011;54393;53.556;49.216;2023-09-19T15:37:24;1.50;;;0.90;;
67564;SDS011;54393;53.556;49.216;2023-09-19T15:39:51;0.80;;;0.80;;
67564;SDS011;54393;53.556;49.216;2023-09-19T15:42:18;0.80;;;0.80;;
67564;SDS011;54393;53.556;49.216;2023-09-19T15:44:45;3.75;;;0.85;;
67564;SDS011;54393;53.556;49.216;2023-09-19T15:47:13;0.82;;;0.80;;
67564;SDS011;54393;53.556;49.216;2023-09-19T15:49:40;0.85;;;0.85;;
67564;SDS011;54393;53.556;49.216;2023-09-19T15:52:07;0.80;;;0.80;;
67564;SDS011;54393;53.556;49.216;2023-09-19T15:54:34;1.02;;;0.82;;
67564;SDS011;54393;53.556;49.216;2023-09-19T15:57:00;0.90;;;0.90;;
67564;SDS011;54393;53.556;49.216;2023-09-19T15:59:27;0.90;;;0.90;;